Time;durP1;ratioP1;P1;durP2;ratioP2;P2;SDS_P1;SDS_P2;PMS_P1;PMS_P2;Temp;Humidity;BMP_temperature;BMP_pressure;BME280_temperature;BME280_humidity;BME280_pressure;Samples;Min_cycle;Max_cycle;Signal;HPM_P1;HPM_P2
2024/03/22 00:00:16;;;;;;;47.17;22.27;;;;;;;15.17;58.34;102145.56;4963837;28;100610;-92
2024/03/22 00:02:41;;;;;;;51.22;22.02;;;;;;;15.17;58.51;102141.19;4981060;28;96614;-92
2024/03/22 00:05:07;;;;;;;54.67;23.27;;;;;;;15.18;58.47;102147.31;4970401;28;96741;-92
2024/03/22 00:07:32;;;;;;;45.70;21.30;;;;;;;15.19;58.56;102139.44;4961396;28;96729;-92
2024/03/22 00:09:58;;;;;;;50.95;22.10;;;;;;;15.21;58.56;102134.22;4959454;28;99032;-93
2024/03/22 00:12:23;;;;;;;48.53;21.67;;;;;;;15.23;58.72;102125.47;4978088;28;97694;-92
2024/03/22 00:14:51;;;;;;;48.63;22.65;;;;;;;15.25;58.56;102128.13;4959761;28;96594;-93
2024/03/22 00:17:17;;;;;;;57.38;23.98;;;;;;;15.27;58.61;102115.88;4959557;28;96811;-91
2024/03/22 00:19:42;;;;;;;49.72;22.50;;;;;;;15.28;58.36;102104.53;4966452;28;100173;-93
2024/03/22 00:22:08;;;;;;;52.55;23.20;;;;;;;15.27;58.93;102092.22;4965904;28;96755;-93
2024/03/22 00:24:33;;;;;;;52.67;23.08;;;;;;;15.30;58.75;102096.66;4971847;28;96859;-91
2024/03/22 00:26:59;;;;;;;55.38;22.70;;;;;;;15.30;58.83;102094.03;4970024;28;97067;-91
2024/03/22 00:29:26;;;;;;;53.05;23.27;;;;;;;15.31;58.91;102091.44;4964098;28;99115;-92
2024/03/22 00:31:51;;;;;;;48.22;22.70;;;;;;;15.31;59.02;102078.28;4972839;28;99828;-93
2024/03/22 00:34:17;;;;;;;53.53;22.40;;;;;;;15.31;58.99;102088.81;4969872;28;96674;-92
2024/03/22 00:36:42;;;;;;;50.33;21.52;;;;;;;15.33;59.10;102078.28;4972252;28;96617;-92
2024/03/22 00:39:07;;;;;;;47.78;22.38;;;;;;;15.34;59.16;102070.41;4966189;28;100166;-92
2024/03/22 00:41:33;;;;;;;55.25;23.83;;;;;;;15.37;58.90;102064.34;4969249;28;97828;-88
2024/03/22 00:44:01;;;;;;;55.20;22.77;;;;;;;15.36;59.21;102052.91;4937914;28;96893;-86
2024/03/22 00:46:27;;;;;;;55.72;23.08;;;;;;;15.38;59.00;102048.59;4958638;28;96999;-87
2024/03/22 00:48:52;;;;;;;54.05;24.23;;;;;;;15.39;59.26;102046.81;4944224;28;100299;-85
2024/03/22 00:51:18;;;;;;;55.50;23.95;;;;;;;15.38;59.46;102035.44;4953125;28;100532;-85
2024/03/22 00:53:43;;;;;;;54.58;23.90;;;;;;;15.39;59.40;102033.69;4958844;28;96922;-86
2024/03/22 00:56:08;;;;;;;59.20;24.85;;;;;;;15.39;59.32;102031.91;4941525;28;97081;-85
2024/03/22 00:58:34;;;;;;;54.08;22.60;;;;;;;15.40;59.03;102032.78;4954435;28;100260;-87
2024/03/22 01:00:59;;;;;;;51.30;23.55;;;;;;;15.40;59.11;102033.69;4958186;28;97380;-86
2024/03/22 01:03:25;;;;;;;52.05;22.27;;;;;;;15.41;59.21;102045.97;4941421;28;96882;-86
2024/03/22 01:05:50;;;;;;;57.78;23.92;;;;;;;15.40;59.25;102041.59;4960804;28;96885;-86
2024/03/22 01:08:16;;;;;;;51.17;21.88;;;;;;;15.41;59.09;102045.09;4959265;28;100556;-87
2024/03/22 01:10:43;;;;;;;49.53;21.77;;;;;;;15.40;59.06;102036.31;4956046;28;99732;-85
2024/03/22 01:13:08;;;;;;;47.95;21.13;;;;;;;15.41;59.18;102031.94;4970001;28;96792;-85
2024/03/22 01:15:34;;;;;;;54.45;23.42;;;;;;;15.39;59.25;102024.03;4958515;28;96847;-85
2024/03/22 01:18:00;;;;;;;53.35;23.25;;;;;;;15.40;59.03;102033.69;4956936;28;100462;-85
2024/03/22 01:20:25;;;;;;;48.20;21.85;;;;;;;15.39;59.15;102031.91;4958966;28;97847;-85
2024/03/22 01:22:51;;;;;;;54.53;23.10;;;;;;;15.40;59.11;102031.06;4956980;28;96872;-85
2024/03/22 01:25:16;;;;;;;48.25;20.60;;;;;;;15.40;59.07;102031.06;4944323;28;96978;-84
2024/03/22 01:27:42;;;;;;;49.20;20.73;;;;;;;15.40;59.11;102031.06;4957272;28;98094;-86
2024/03/22 01:30:08;;;;;;;46.85;21.35;;;;;;;15.39;59.03;102020.53;4941887;28;100538;-86
2024/03/22 01:32:35;;;;;;;47.15;20.52;;;;;;;15.38;59.00;102024.91;4960863;28;97236;-86
2024/03/22 01:35:00;;;;;;;47.72;20.52;;;;;;;15.38;58.81;102022.28;4958974;28;97330;-86
2024/03/22 01:37:25;;;;;;;43.38;20.83;;;;;;;15.38;58.94;102022.28;4960969;28;100581;-86
2024/03/22 01:39:51;;;;;;;48.67;21.33;;;;;;;15.39;59.08;102015.28;4949810;28;100341;-85
2024/03/22 01:42:16;;;;;;;47.58;21.35;;;;;;;15.39;58.97;102024.03;4938385;28;96874;-86
2024/03/22 01:44:42;;;;;;;47.17;20.25;;;;;;;15.39;58.87;102017.91;4943179;28;96933;-86
2024/03/22 01:47:11;;;;;;;45.47;21.02;;;;;;;15.36;59.14;102013.47;4955531;28;100616;-86
2024/03/22 01:49:37;;;;;;;50.42;22.55;;;;;;;15.37;59.13;102004.75;4944239;28;100574;-85
2024/03/22 01:59:55;;;;;;;52.35;22.60;;;;;;;15.26;58.85;102005.47;4963543;28;97619;-85
2024/03/22 02:02:21;;;;;;;45.25;21.98;;;;;;;15.22;59.11;102007.19;4955522;28;97863;-90
2024/03/22 02:04:50;;;;;;;56.78;23.10;;;;;;;15.21;58.97;102008.06;4963392;28;96719;-92
2024/03/22 02:07:16;;;;;;;54.20;24.58;;;;;;;15.19;59.20;102002.78;4978355;28;96896;-91
2024/03/22 02:09:44;;;;;;;55.70;24.10;;;;;;;15.18;59.13;102006.25;4961162;28;98042;-92
2024/03/22 02:12:10;;;;;;;58.42;24.98;;;;;;;15.17;59.26;102006.28;4970073;28;101024;-91
2024/03/22 02:14:35;;;;;;;60.35;25.70;;;;;;;15.17;59.18;102008.91;4972978;28;96733;-92
2024/03/22 02:17:01;;;;;;;59.42;25.45;;;;;;;15.14;58.93;102007.09;4947701;28;96844;-93
2024/03/22 02:19:26;;;;;;;62.70;26.27;;;;;;;15.11;59.24;102007.03;4961266;28;101237;-92
2024/03/22 02:21:51;;;;;;;63.08;27.45;;;;;;;15.09;59.12;102000.03;4964343;28;97821;-93
2024/03/22 02:24:17;;;;;;;62.03;26.90;;;;;;;15.06;58.96;101997.34;4961162;28;96732;-87
2024/03/22 02:26:42;;;;;;;70.40;28.75;;;;;;;15.02;59.11;101992.03;4957780;28;97227;-87
2024/03/22 02:29:08;;;;;;;63.67;26.52;;;;;;;15.01;59.03;101989.44;4939492;28;100112;-87
2024/03/22 02:31:33;;;;;;;61.97;27.25;;;;;;;14.99;59.14;101984.16;4954050;28;100299;-86
2024/03/22 02:33:59;;;;;;;65.70;28.20;;;;;;;14.95;58.89;101984.09;4951751;28;96901;-86
2024/03/22 02:36:25;;;;;;;64.32;27.92;;;;;;;14.91;59.19;101983.16;4953365;28;96885;-86
2024/03/22 02:38:51;;;;;;;73.68;29.52;;;;;;;14.89;59.00;101982.25;4956455;28;97792;-85
2024/03/22 02:41:16;;;;;;;66.35;27.63;;;;;;;14.85;58.91;101978.72;4955873;28;97441;-86
2024/03/22 02:43:42;;;;;;;65.85;27.85;;;;;;;14.83;59.13;101963.78;4952274;28;96824;-86
2024/03/22 02:46:07;;;;;;;70.00;28.70;;;;;;;14.82;58.75;101967.28;4955128;28;96843;-86
2024/03/22 02:48:33;;;;;;;67.25;29.27;;;;;;;14.80;59.08;101964.63;4955619;28;100563;-87
2024/03/22 02:50:58;;;;;;;67.18;28.35;;;;;;;14.79;59.08;101957.59;4953067;28;100882;-86
2024/03/22 02:53:24;;;;;;;70.03;27.42;;;;;;;14.78;59.16;101960.25;4955840;28;96923;-87
2024/03/22 02:55:49;;;;;;;67.03;28.30;;;;;;;14.78;59.17;101952.34;4952979;28;96947;-87
2024/03/22 02:58:16;;;;;;;71.63;28.67;;;;;;;14.75;58.95;101944.44;4941353;28;100990;-87
2024/03/22 03:00:42;;;;;;;69.30;28.58;;;;;;;14.73;59.16;101930.41;4954116;28;100462;-86
2024/03/22 03:03:07;;;;;;;67.43;28.80;;;;;;;14.72;59.15;101923.38;4967653;28;96947;-88
2024/03/22 03:05:34;;;;;;;71.25;27.45;;;;;;;14.69;59.38;101921.59;4943182;28;96910;-87
2024/03/22 03:08:00;;;;;;;64.47;27.00;;;;;;;14.67;59.10;101912.84;4945730;28;100521;-86
2024/03/22 03:10:26;;;;;;;67.47;26.23;;;;;;;14.64;59.27;101920.66;4958982;28;100276;-87
2024/03/22 03:12:53;;;;;;;71.60;27.42;;;;;;;14.63;59.46;101917.16;4952154;28;96830;-87
2024/03/22 03:15:19;;;;;;;69.32;27.92;;;;;;;14.62;59.42;101907.50;4937355;28;96963;-87
2024/03/22 03:17:44;;;;;;;74.88;27.80;;;;;;;14.59;59.27;101909.22;4944470;28;100175;-87
2024/03/22 03:20:13;;;;;;;66.30;25.83;;;;;;;14.55;59.30;101908.25;4957718;28;100066;-86
2024/03/22 03:22:40;;;;;;;68.90;25.23;;;;;;;14.52;59.41;101904.72;4935819;28;96828;-87
2024/03/22 03:25:06;;;;;;;66.35;24.75;;;;;;;14.48;59.38;101902.03;4949849;28;96867;-87
2024/03/22 03:27:32;;;;;;;65.88;25.30;;;;;;;14.46;59.59;101890.63;4958792;28;99782;-86
2024/03/22 03:29:57;;;;;;;61.42;22.23;;;;;;;14.45;59.53;101882.75;4961220;28;97464;-85
2024/03/22 03:32:23;;;;;;;62.65;24.08;;;;;;;14.44;59.43;101881.00;4937372;28;96901;-87
2024/03/22 03:34:48;;;;;;;61.65;21.63;;;;;;;14.41;59.35;101875.69;4959217;28;96889;-86
2024/03/22 03:37:14;;;;;;;58.67;22.88;;;;;;;14.39;59.43;101869.56;4953004;28;97967;-86
2024/03/22 03:39:39;;;;;;;60.20;22.92;;;;;;;14.37;59.58;101863.41;4958794;28;97751;-85
2024/03/22 03:42:05;;;;;;;59.03;21.38;;;;;;;14.36;59.70;101864.25;4959682;28;96897;-85
2024/03/22 03:44:30;;;;;;;58.45;23.00;;;;;;;14.35;59.69;101859.84;4941182;28;96796;-93
2024/03/22 03:46:56;;;;;;;57.55;21.55;;;;;;;14.31;59.57;101856.31;4960965;28;100471;-92
2024/03/22 03:49:21;;;;;;;59.45;22.20;;;;;;;14.30;59.70;101858.94;4958453;28;99140;-91
2024/03/22 03:51:47;;;;;;;53.25;22.45;;;;;;;14.27;59.56;101852.75;4955737;28;96647;-92
2024/03/22 03:54:12;;;;;;;56.50;21.67;;;;;;;14.26;59.43;101856.25;4975834;28;96848;-93
2024/03/22 03:56:37;;;;;;;52.28;19.85;;;;;;;14.25;59.73;101856.22;4979236;28;96891;-92
2024/03/22 03:59:03;;;;;;;56.90;22.00;;;;;;;14.22;59.63;101851.81;4962744;28;100491;-92
2024/03/22 04:01:28;;;;;;;55.38;20.63;;;;;;;14.22;59.61;101856.19;4966702;28;96676;-92
2024/03/22 04:03:54;;;;;;;55.17;20.45;;;;;;;14.21;59.52;101857.06;4962491;28;96844;-92
2024/03/22 04:06:19;;;;;;;52.50;20.15;;;;;;;14.20;59.51;101850.03;4945873;28;100187;-92
2024/03/22 04:08:45;;;;;;;57.47;21.10;;;;;;;14.19;59.63;101849.16;4970689;28;97466;-92
2024/03/22 04:11:11;;;;;;;56.25;20.42;;;;;;;14.18;59.67;101846.53;4962140;28;96572;-93
2024/03/22 04:13:37;;;;;;;56.60;21.27;;;;;;;14.17;59.85;101840.41;4964066;28;96658;-93
2024/03/22 04:16:02;;;;;;;61.88;21.73;;;;;;;14.16;59.67;101841.25;4943720;28;100372;-92
2024/03/22 04:18:28;;;;;;;56.50;21.05;;;;;;;14.18;59.68;101851.75;4959730;28;99558;-93
2024/03/22 04:20:58;;;;;;;53.38;21.42;;;;;;;14.17;59.51;101845.66;4967204;28;96576;-92
2024/03/22 04:23:24;;;;;;;55.15;21.33;;;;;;;14.18;59.68;101852.63;4980267;28;96544;-93
2024/03/22 04:25:58;;;;;;;57.38;21.55;;;;;;;14.15;59.83;101842.09;4980354;28;98038;-93
2024/03/22 04:28:24;;;;;;;54.35;21.85;;;;;;;14.17;59.74;101844.75;4980004;28;99167;-93
2024/03/22 04:31:02;;;;;;;57.88;22.05;;;;;;;14.15;59.81;101846.47;4979037;28;96623;-93
2024/03/22 04:33:28;;;;;;;57.40;21.40;;;;;;;14.17;59.70;101850.88;4979463;28;96601;-93
2024/03/22 04:35:54;;;;;;;59.78;21.95;;;;;;;14.15;59.45;101844.72;4965514;28;99326;-92
2024/03/22 04:38:20;;;;;;;54.40;21.50;;;;;;;14.15;59.73;101844.72;4982497;28;99952;-93
2024/03/22 04:40:45;;;;;;;53.58;19.77;;;;;;;14.15;59.65;101836.84;4983345;28;96638;-94
2024/03/22 04:43:11;;;;;;;57.72;21.95;;;;;;;14.19;59.68;101845.63;4966712;28;96843;-92
2024/03/22 04:45:36;;;;;;;56.33;21.02;;;;;;;14.18;59.39;101844.75;4953388;28;100367;-91
2024/03/22 04:48:04;;;;;;;53.45;21.80;;;;;;;14.16;59.69;101846.50;4957495;28;99824;-85
2024/03/22 04:50:30;;;;;;;55.03;21.25;;;;;;;14.18;59.73;101862.25;4942643;28;96861;-86
2024/03/22 04:52:56;;;;;;;58.72;23.42;;;;;;;14.17;59.69;101848.28;4962930;28;96933;-86
2024/03/22 04:55:21;;;;;;;60.63;22.85;;;;;;;14.15;59.74;101851.72;4958933;28;100903;-86
2024/03/22 04:57:46;;;;;;;58.38;21.92;;;;;;;14.14;59.57;101855.22;4958734;28;100714;-86
2024/03/22 05:00:13;;;;;;;63.85;22.08;;;;;;;14.13;59.52;101862.19;4949658;28;96780;-85
2024/03/22 05:02:38;;;;;;;64.10;22.40;;;;;;;14.12;59.64;101851.66;4945449;28;96993;-85
2024/03/22 05:05:04;;;;;;;60.95;23.83;;;;;;;14.13;59.74;101853.44;4960077;28;97735;-86
2024/03/22 05:07:29;;;;;;;59.85;24.38;;;;;;;14.14;59.52;101860.47;4960111;28;97407;-85
2024/03/22 05:09:55;;;;;;;63.75;24.80;;;;;;;14.14;59.73;101849.97;4941874;28;96795;-85
2024/03/22 05:12:20;;;;;;;64.80;24.48;;;;;;;14.14;59.67;101850.84;4954663;28;96901;-85
2024/03/22 05:14:46;;;;;;;62.63;24.63;;;;;;;14.14;59.78;101850.84;4957656;28;96940;-86
2024/03/22 05:17:11;;;;;;;63.13;24.40;;;;;;;14.14;59.53;101842.97;4961364;28;96887;-86
2024/03/22 05:19:36;;;;;;;66.78;25.70;;;;;;;14.14;59.58;101840.34;4944553;28;96840;-85
2024/03/22 05:22:02;;;;;;;65.88;24.83;;;;;;;14.13;59.85;101841.19;4960992;28;97536;-85
2024/03/22 05:24:28;;;;;;;67.15;24.80;;;;;;;14.13;59.67;101845.56;4959296;28;97768;-85
2024/03/22 05:26:53;;;;;;;58.58;24.08;;;;;;;14.11;59.65;101844.66;4958629;28;100437;-85
2024/03/22 05:29:21;;;;;;;65.50;24.90;;;;;;;14.09;59.58;101836.78;4953837;28;96860;-86
2024/03/22 05:31:51;;;;;;;63.58;26.55;;;;;;;14.09;59.81;101834.16;4959533;28;97092;-85
2024/03/22 05:34:17;;;;;;;60.78;24.33;;;;;;;14.09;59.54;101835.03;4958700;28;101106;-84
2024/03/22 05:36:43;;;;;;;61.35;24.23;;;;;;;14.09;59.68;101823.66;4940948;28;100960;-85
2024/03/22 05:39:10;;;;;;;59.38;24.27;;;;;;;14.09;59.81;101826.28;4945514;28;96933;-85
2024/03/22 05:41:36;;;;;;;54.35;22.02;;;;;;;14.07;59.51;101823.63;4959451;28;96890;-85
2024/03/22 05:44:01;;;;;;;60.65;22.65;;;;;;;14.06;59.76;101818.34;4938857;28;100262;-86
2024/03/22 05:46:26;;;;;;;55.95;23.17;;;;;;;14.04;59.72;101820.97;4953096;28;97355;-86
2024/03/22 05:48:52;;;;;;;62.60;23.13;;;;;;;14.03;59.56;101813.09;4957792;28;96836;-86
2024/03/22 05:51:17;;;;;;;56.45;23.13;;;;;;;14.02;59.74;101811.31;4956086;28;96857;-83
2024/03/22 05:53:43;;;;;;;60.55;23.38;;;;;;;14.01;59.57;101806.91;4952966;28;98030;-83
2024/03/22 05:56:08;;;;;;;59.80;24.23;;;;;;;13.99;59.79;101806.03;4949539;28;100606;-85
2024/03/22 05:58:34;;;;;;;61.83;24.45;;;;;;;13.99;59.80;101804.31;4958197;28;96757;-92
2024/03/22 06:01:00;;;;;;;54.83;22.88;;;;;;;13.98;59.73;101799.91;4964119;28;96908;-90
2024/03/22 06:03:25;;;;;;;60.03;23.65;;;;;;;13.97;59.57;101799.88;4953288;28;100871;-91
2024/03/22 06:05:55;;;;;;;58.05;23.60;;;;;;;13.96;59.75;101795.50;4948764;28;100529;-90
2024/03/22 06:08:52;;;;;;;60.58;23.17;;;;;;;13.94;59.96;101798.09;4959145;28;96787;-89
2024/03/22 06:11:18;;;;;;;55.08;22.17;;;;;;;13.97;59.74;101798.13;4961027;28;96834;-90
2024/03/22 06:13:43;;;;;;;62.15;23.23;;;;;;;13.96;59.89;101785.00;4948202;28;101152;-92
2024/03/22 06:16:09;;;;;;;60.63;23.10;;;;;;;13.96;59.76;101791.13;4951627;28;99972;-89
2024/03/22 06:18:34;;;;;;;58.65;23.65;;;;;;;13.96;59.82;101790.25;4964000;28;96869;-90
2024/03/22 06:21:00;;;;;;;58.70;22.48;;;;;;;13.98;59.95;101799.03;4959389;28;96965;-90
2024/03/22 06:23:25;;;;;;;54.22;23.25;;;;;;;14.01;59.81;101793.81;4947699;28;100388;-89
2024/03/22 06:25:55;;;;;;;54.78;21.35;;;;;;;14.00;59.51;101792.06;4939569;28;99832;-91
2024/03/22 06:28:21;;;;;;;54.08;21.95;;;;;;;14.03;59.74;101792.09;4954727;28;96685;-91
2024/03/22 06:30:46;;;;;;;53.28;20.35;;;;;;;14.05;59.80;101793.00;4954953;28;96812;-88
2024/03/22 06:33:12;;;;;;;51.65;20.33;;;;;;;14.05;59.85;101787.75;4973678;28;98012;-90
2024/03/22 06:35:38;;;;;;;43.28;18.40;;;;;;;14.06;59.65;101790.41;4966787;28;97773;-91
2024/03/22 06:38:04;;;;;;;44.33;18.20;;;;;;;14.09;59.73;101797.41;4968156;28;96820;-92
2024/03/22 06:40:30;;;;;;;44.53;18.42;;;;;;;14.12;59.71;101793.94;4952815;28;96871;-92
2024/03/22 06:42:55;;;;;;;44.28;18.23;;;;;;;14.14;59.67;101787.88;4962131;28;99459;-91
2024/03/22 06:45:21;;;;;;;44.38;18.30;;;;;;;14.17;59.58;101793.16;4965259;28;100154;-91
2024/03/22 06:47:47;;;;;;;44.92;17.90;;;;;;;14.21;59.59;101796.72;4989284;28;96861;-92
2024/03/22 06:50:15;;;;;;;50.47;18.45;;;;;;;14.22;59.67;101799.31;4970648;28;96973;-92
2024/03/22 06:52:40;;;;;;;41.72;18.48;;;;;;;14.23;59.60;101795.84;4974399;28;99106;-91
2024/03/22 06:55:06;;;;;;;46.42;18.20;;;;;;;14.25;59.54;101793.25;4973487;28;98761;-92
2024/03/22 06:57:33;;;;;;;46.70;19.35;;;;;;;14.29;59.48;101797.66;4967934;28;96770;-92
2024/03/22 06:59:59;;;;;;;46.50;19.45;;;;;;;14.32;59.46;101789.84;4959756;28;96855;-96
2024/03/22 07:02:25;;;;;;;48.67;19.58;;;;;;;14.34;59.53;101788.13;4963599;28;99252;-96
2024/03/22 07:04:52;;;;;;;43.63;18.52;;;;;;;14.36;59.61;101791.63;4948019;28;99175;-95
2024/03/22 07:07:18;;;;;;;43.78;18.20;;;;;;;14.38;59.49;101797.78;4946820;28;96848;-92
2024/03/22 07:09:44;;;;;;;41.92;18.17;;;;;;;14.41;59.51;101795.19;4957741;28;96759;-91
2024/03/22 07:12:09;;;;;;;43.55;18.55;;;;;;;14.41;59.40;101797.81;4942388;28;100272;-92
2024/03/22 07:14:35;;;;;;;44.03;18.38;;;;;;;14.43;59.32;101792.59;4955886;28;98655;-90
2024/03/22 07:17:00;;;;;;;46.63;18.45;;;;;;;14.42;59.04;101789.09;4962885;28;96729;-91
2024/03/22 07:19:27;;;;;;;38.70;16.83;;;;;;;14.44;59.19;101783.88;4961803;28;96666;-92
2024/03/22 07:21:52;;;;;;;43.10;17.17;;;;;;;14.45;59.15;101785.63;4946027;28;100094;-93
2024/03/22 07:24:18;;;;;;;45.95;17.30;;;;;;;14.46;59.18;101790.00;4951226;28;100200;-91
2024/03/22 07:26:43;;;;;;;45.70;17.42;;;;;;;14.46;59.01;101793.50;4958593;28;96921;-92
2024/03/22 07:29:09;;;;;;;40.78;16.77;;;;;;;14.46;58.95;101796.13;4947690;28;96690;-91
2024/03/22 07:31:34;;;;;;;44.90;17.67;;;;;;;14.47;58.92;101795.28;4943377;28;101479;-92
2024/03/22 07:34:02;;;;;;;45.47;18.25;;;;;;;14.46;59.17;101792.63;4979506;28;100242;-92
2024/03/22 07:36:28;;;;;;;49.60;18.60;;;;;;;14.46;59.18;101801.38;4962392;28;96736;-92
2024/03/22 07:38:53;;;;;;;49.10;17.58;;;;;;;14.48;58.96;101801.41;4965588;28;96961;-90
2024/03/22 07:41:19;;;;;;;45.03;17.00;;;;;;;14.50;59.20;101796.19;4961717;28;99683;-93
2024/03/22 07:43:44;;;;;;;44.35;17.00;;;;;;;14.53;58.91;101799.72;4963743;28;100336;-92
2024/03/22 07:46:11;;;;;;;43.35;18.63;;;;;;;14.52;58.78;101794.44;4965841;28;96575;-92
2024/03/22 07:48:37;;;;;;;46.65;17.85;;;;;;;14.50;59.18;101788.31;4980573;28;96874;-91
2024/03/22 07:51:03;;;;;;;47.97;17.67;;;;;;;14.48;58.77;101794.41;4977352;28;99985;-92
2024/03/22 07:53:29;;;;;;;44.10;17.70;;;;;;;14.47;58.86;101794.38;4964877;28;97387;-91
2024/03/22 07:55:54;;;;;;;47.25;16.98;;;;;;;14.46;58.76;101797.88;4931299;28;96908;-88
2024/03/22 07:58:20;;;;;;;46.22;17.67;;;;;;;14.44;58.86;101790.00;4954469;28;96859;-87
2024/03/22 08:00:45;;;;;;;43.00;17.45;;;;;;;14.44;58.78;101794.38;4953936;28;100129;-89
2024/03/22 08:03:15;;;;;;;44.65;18.00;;;;;;;14.43;58.73;101785.59;4952083;28;100130;-88
2024/03/22 08:05:41;;;;;;;44.00;16.90;;;;;;;14.44;59.01;101789.13;4952430;28;96839;-87
2024/03/22 08:08:07;;;;;;;47.80;17.20;;;;;;;14.44;58.96;101789.13;4936867;28;96937;-87
2024/03/22 08:10:32;;;;;;;41.65;16.60;;;;;;;14.43;59.08;101792.59;4935769;28;100519;-87
2024/03/22 08:12:58;;;;;;;45.55;16.55;;;;;;;14.42;58.75;101796.06;4940798;28;100117;-87
2024/03/22 08:15:23;;;;;;;43.70;16.83;;;;;;;14.43;59.33;101789.97;4958019;28;96877;-89
2024/03/22 08:17:49;;;;;;;41.88;15.63;;;;;;;14.45;59.21;101790.88;4941430;28;97006;-88
2024/03/22 08:20:17;;;;;;;43.60;16.38;;;;;;;14.44;59.25;101787.38;4948160;28;100325;-86
2024/03/22 08:22:43;;;;;;;41.35;15.10;;;;;;;14.43;59.21;101787.34;4955926;28;100381;-91
2024/03/22 08:25:08;;;;;;;35.28;12.50;;;;;;;14.41;59.28;101794.31;4946402;28;96700;-93
2024/03/22 08:27:34;;;;;;;36.95;13.45;;;;;;;14.40;59.56;101792.56;4954294;28;96703;-93
2024/03/22 08:30:00;;;;;;;32.25;12.27;;;;;;;14.37;59.52;101793.41;4963041;28;96852;-92
2024/03/22 08:32:26;;;;;;;34.47;13.15;;;;;;;14.37;59.60;101782.91;4966304;28;100416;-92
2024/03/22 08:34:51;;;;;;;34.25;12.50;;;;;;;14.35;59.68;101791.59;4959756;28;96887;-85
2024/03/22 08:37:16;;;;;;;33.70;11.55;;;;;;;14.31;59.62;101792.44;4956865;28;97253;-86
2024/03/22 08:39:42;;;;;;;26.75;10.77;;;;;;;14.28;59.89;101791.56;4950696;28;101479;-86
2024/03/22 08:42:09;;;;;;;35.08;10.90;;;;;;;14.24;59.94;101781.88;4939358;28;100309;-92
2024/03/22 08:44:35;;;;;;;27.85;10.27;;;;;;;14.20;59.90;101780.06;4968295;28;96617;-92
2024/03/22 08:47:00;;;;;;;29.85;10.77;;;;;;;14.17;60.07;101781.78;4978957;28;96850;-94
2024/03/22 08:49:26;;;;;;;32.53;11.68;;;;;;;14.15;60.36;101773.00;4968010;28;100320;-92
2024/03/22 08:51:51;;;;;;;30.00;11.70;;;;;;;14.11;60.35;101774.72;4967018;28;99693;-93
2024/03/22 08:54:19;;;;;;;27.48;10.82;;;;;;;14.11;60.53;101781.72;4985320;28;96701;-94
2024/03/22 08:56:45;;;;;;;31.60;11.65;;;;;;;14.11;60.83;101776.47;4985782;28;96593;-94
2024/03/22 08:59:11;;;;;;;33.20;11.82;;;;;;;14.12;60.63;101771.25;4961556;28;98721;-93
2024/03/22 09:01:37;;;;;;;33.60;13.23;;;;;;;14.13;60.63;101775.59;4964542;28;99477;-92
2024/03/22 09:04:04;;;;;;;32.03;12.13;;;;;;;14.11;60.84;101769.47;4959855;28;96770;-85
2024/03/22 09:06:29;;;;;;;31.90;11.50;;;;;;;14.08;60.87;101762.44;4956487;28;97041;-86
2024/03/22 09:08:57;;;;;;;32.40;11.68;;;;;;;14.09;60.98;101771.19;4944775;28;100527;-86
2024/03/22 09:11:29;;;;;;;35.60;13.20;;;;;;;14.11;61.19;101763.34;4960934;28;101100;-90
2024/03/22 09:13:55;;;;;;;27.50;11.18;;;;;;;14.12;61.19;101779.09;4936086;28;96941;-88
2024/03/22 09:16:21;;;;;;;35.95;13.70;;;;;;;14.15;61.25;101767.75;4954219;28;96825;-85
2024/03/22 09:18:46;;;;;;;35.83;12.88;;;;;;;14.15;61.41;101768.63;4939321;28;100696;-86
2024/03/22 09:21:12;;;;;;;34.70;12.48;;;;;;;14.17;61.28;101768.66;4946530;28;100569;-87
2024/03/22 09:23:37;;;;;;;31.92;11.82;;;;;;;14.16;61.36;101767.78;4954230;28;96809;-87
2024/03/22 09:26:03;;;;;;;31.10;12.38;;;;;;;14.15;61.49;101765.13;4959010;28;97059;-86
2024/03/22 09:28:28;;;;;;;32.15;11.52;;;;;;;14.15;61.43;101762.50;4939703;28;100626;-86
2024/03/22 09:30:54;;;;;;;34.28;12.38;;;;;;;14.15;61.44;101763.38;4955204;28;100517;-86
2024/03/22 09:33:19;;;;;;;31.10;11.60;;;;;;;14.14;61.51;101763.38;4954374;28;96865;-86
2024/03/22 09:35:45;;;;;;;24.50;10.88;;;;;;;14.13;61.72;101761.63;4959234;28;96808;-86
2024/03/22 09:38:10;;;;;;;32.88;10.85;;;;;;;14.13;61.88;101766.84;4954729;28;100613;-87
2024/03/22 09:40:42;;;;;;;26.30;9.95;;;;;;;14.12;61.56;101763.38;4935306;28;101105;-88
2024/03/22 09:43:07;;;;;;;25.85;10.25;;;;;;;14.12;61.85;101765.09;4950437;28;96919;-86
2024/03/22 09:45:33;;;;;;;24.08;10.23;;;;;;;14.12;62.02;101766.00;4941499;28;96955;-85
2024/03/22 09:48:00;;;;;;;25.13;9.93;;;;;;;14.14;62.07;101759.00;4952860;28;100620;-86
2024/03/22 09:50:29;;;;;;;20.88;8.90;;;;;;;14.14;62.02;101753.75;4970602;28;100280;-84
2024/03/22 09:52:55;;;;;;;;;;;;;;;14.12;61.70;101766.00;4962519;28;96913;-85
2024/03/22 09:55:24;;;;;;;20.50;8.68;;;;;;;14.15;61.89;101767.75;4957629;28;96818;-84
2024/03/22 09:57:50;;;;;;;22.70;9.45;;;;;;;14.13;61.92;101756.38;4960035;28;99999;-85
2024/03/22 10:00:18;;;;;;;18.85;8.85;;;;;;;14.12;62.16;101765.09;4953587;28;99100;-86
2024/03/22 10:02:47;;;;;;;24.38;9.50;;;;;;;14.11;62.33;101753.72;4973147;28;97201;-85
2024/03/22 10:05:13;;;;;;;20.05;8.55;;;;;;;14.13;62.27;101753.75;4940818;28;97011;-85
2024/03/22 10:07:39;;;;;;;19.42;8.35;;;;;;;14.13;62.41;101746.75;4959825;28;97552;-85
2024/03/22 10:10:05;;;;;;;22.77;9.27;;;;;;;14.16;62.59;101741.53;4952570;28;100345;-85
2024/03/22 10:12:33;;;;;;;16.20;8.65;;;;;;;14.20;62.52;101745.09;4952473;28;96799;-86
2024/03/22 10:14:59;;;;;;;20.13;9.45;;;;;;;14.22;62.31;101741.59;4940530;28;96983;-85
2024/03/22 10:17:27;;;;;;;21.73;9.77;;;;;;;14.23;62.24;101747.75;4963645;28;100519;-85
2024/03/22 10:19:52;;;;;;;23.50;10.13;;;;;;;14.23;62.33;101746.00;4957710;28;97329;-86
2024/03/22 10:22:18;;;;;;;26.67;10.68;;;;;;;14.22;62.38;101746.84;4946860;28;97066;-85
2024/03/22 10:24:44;;;;;;;21.38;9.98;;;;;;;14.21;62.50;101746.84;4959251;28;96878;-85
2024/03/22 10:27:10;;;;;;;27.55;10.82;;;;;;;14.20;62.46;101745.09;4947687;28;100742;-85
2024/03/22 10:29:36;;;;;;;23.83;10.75;;;;;;;14.19;62.34;101744.22;4960166;28;100143;-85
2024/03/22 10:32:02;;;;;;;23.33;11.93;;;;;;;14.20;62.42;101748.56;4956404;28;96827;-88
2024/03/22 10:34:28;;;;;;;25.38;10.77;;;;;;;14.19;62.47;101743.31;4941140;28;96926;-86
2024/03/22 10:36:56;;;;;;;26.58;11.65;;;;;;;14.18;62.54;101742.44;4956326;28;100789;-85
2024/03/22 10:39:33;;;;;;;25.27;10.48;;;;;;;14.18;62.58;101741.56;4954112;28;98171;-85
2024/03/22 10:41:58;;;;;;;26.63;11.02;;;;;;;14.20;62.80;101748.56;4942754;28;96822;-85
2024/03/22 10:44:24;;;;;;;26.42;11.73;;;;;;;14.22;62.80;101741.59;4962681;28;96989;-86
2024/03/22 10:46:51;;;;;;;26.35;10.10;;;;;;;14.24;63.05;101742.53;4960968;28;100067;-86
2024/03/22 10:49:20;;;;;;;23.58;11.13;;;;;;;14.27;62.74;101750.41;4958034;28;98073;-86
2024/03/22 10:51:49;;;;;;;24.67;11.60;;;;;;;14.29;62.61;101742.56;4953842;28;97504;-85
2024/03/22 10:54:20;;;;;;;24.83;11.98;;;;;;;14.30;62.90;101751.34;4947950;28;97212;-85
2024/03/22 10:56:47;;;;;;;22.58;9.43;;;;;;;14.33;62.47;101748.72;4934571;28;100447;-85
2024/03/22 10:59:21;;;;;;;25.27;11.38;;;;;;;14.35;62.94;101749.63;4946446;28;98052;-84
2024/03/22 11:01:48;;;;;;;20.73;10.38;;;;;;;14.38;62.99;101747.91;4963920;28;96878;-84
2024/03/22 11:04:17;;;;;;;25.23;10.27;;;;;;;14.39;62.74;101740.94;4953074;28;97025;-84
2024/03/22 11:06:47;;;;;;;24.02;10.20;;;;;;;14.37;62.79;101738.28;4949429;28;98125;-84
2024/03/22 11:09:21;;;;;;;17.75;9.32;;;;;;;14.36;62.76;101741.75;4948996;28;100280;-84